Jacksonville, FL (32212)

7:37 PM EDT on July 25, 2016 (GMT -0400)
Ortega Bluff (BE) | | Change Station

Elev 18 ft 30.21 °N, 81.72 °W | Updated 0 second ago

Scattered Clouds
Scattered Clouds
87.1 °F
Feels Like 95 °F
N
0.0
Wind Variable Wind from North
Gusts 0.0 mph

Today
High -- | Low -- °F
--% Chance of Precip.
Yesterday
High -- | Low -- °F
Precip. -- in
Pressure 30.00 in
Visibility 10.0 miles
Clouds Few 4500 ft
Scattered Clouds 10000 ft
Heat Index 95 °F
Dew Point 74 °F
Humidity 64%
Rainfall 0.00 in
Snow Depth Not available.
6:41 AM 8:24 PM
Waning Gibbous, 61% visible
METAR KNIP 252253Z 14013KT 10SM FEW045 SCT100 32/21 A3002 RMK AO2 SLP159 TCU DSNT W T2 SET T03220211 $
Pressure 30.00 in
Visibility 10.0 miles
Clouds Few 4500 ft
Scattered Clouds 10000 ft
Heat Index 95 °F
Dew Point 74 °F
Humidity 64%
Rainfall 0.00 in
Snow Depth Not available.
6:41 AM 8:24 PM
Waning Gibbous, 61% visible
METAR KNIP 252253Z 14013KT 10SM FEW045 SCT100 32/21 A3002 RMK AO2 SLP159 TCU DSNT W T2 SET T03220211 $
Record highs are possible for parts of the Northeast Monday and Tuesday, as parts of the central U.S. take a little breather from the worst of summer's dog day heat.

Expansive high pressure in the upper atmosphere will focus on parts of the East and West this week, sending heat indices well into the triple digits from the Mid-Atlantic states into the South.

10-Day Weather Forecast

Almanac

Astronomy

Jul. 25, 2016 Rise Set
Actual Time
Civil Twilight
Nautical Twilight
Astronomical Twilight
Moon
Length of Visible Light
Length of Day
Tomorrow will be .
, % of the Moon is Illuminated

Today's Extremes

State Highs State Lows

Community

WunderPhotos

Upload Photos

1,927,445 photos uploaded!

WunderBlog® & News

Nearby

Air Quality

  Air Quality AQ Index Pollutant
Not available.

Snow Depth

Station Depth Elevation

Earthquake Activity

City Distance Mag. Time & Date
Minimum magnitude displayed is 2.5.

Coastal Water Temperatures

Place Temperature

Stations

Nearby Weather Stations

Station Location Temp. Windchill Dew Point Humidity Wind Precip. Elev Updated Type
                   

Watches & Warnings

There are currently no watches in effect.